createdAt,value
2023-05-20T00:01:59.666Z,5.32
2023-05-20T00:04:28.061Z,5.00
2023-05-20T00:06:56.064Z,5.43
2023-05-20T00:09:23.975Z,6.53
2023-05-20T00:11:52.258Z,5.15
2023-05-20T00:14:20.231Z,5.22
2023-05-20T00:16:48.233Z,3.95
2023-05-20T00:19:17.042Z,8.38
2023-05-20T00:21:45.009Z,6.53
2023-05-20T00:24:12.998Z,7.47
2023-05-20T00:26:41.486Z,6.62
2023-05-20T00:29:09.480Z,8.65
2023-05-20T00:31:37.668Z,8.57
2023-05-20T00:34:06.798Z,7.40
2023-05-20T00:36:35.833Z,10.13
2023-05-20T00:39:04.039Z,9.25
2023-05-20T00:41:33.035Z,11.55
2023-05-20T00:44:01.070Z,9.70
2023-05-20T00:46:30.108Z,9.30
2023-05-20T00:48:59.053Z,13.43
2023-05-20T00:51:27.276Z,11.45
2023-05-20T00:53:56.531Z,11.45
2023-05-20T00:56:25.655Z,9.40
2023-05-20T00:58:53.860Z,11.40
2023-05-20T01:01:22.026Z,10.27
2023-05-20T01:03:52.129Z,10.25
2023-05-20T01:06:20.236Z,9.55
2023-05-20T01:08:48.531Z,12.45
2023-05-20T01:11:25.362Z,11.88
2023-05-20T01:13:58.543Z,11.45
2023-05-20T01:16:30.093Z,10.50
2023-05-20T01:18:59.645Z,11.52
2023-05-20T01:21:31.645Z,9.77
2023-05-20T01:23:59.682Z,8.88
2023-05-20T01:26:28.512Z,9.95
2023-05-20T01:28:58.275Z,12.63
2023-05-20T01:31:33.534Z,7.90
2023-05-20T01:34:02.790Z,7.90
2023-05-20T01:36:32.820Z,8.80
2023-05-20T01:39:03.520Z,10.18
2023-05-20T01:41:34.868Z,10.50
2023-05-20T01:44:04.195Z,10.40
2023-05-20T01:46:35.292Z,7.72
2023-05-20T01:49:03.813Z,8.65
2023-05-20T01:51:33.966Z,7.90
2023-05-20T01:54:02.048Z,10.80
2023-05-20T01:56:31.372Z,8.57
2023-05-20T01:59:00.209Z,7.53
2023-05-20T02:01:28.485Z,8.77
2023-05-20T02:03:56.910Z,5.22
2023-05-20T02:06:24.981Z,10.27
2023-05-20T02:08:53.065Z,7.03
2023-05-20T02:11:22.401Z,5.87
2023-05-20T02:13:51.922Z,6.25
2023-05-20T02:16:20.117Z,7.28
2023-05-20T02:18:48.744Z,4.60
2023-05-20T02:21:18.480Z,6.80
2023-05-20T02:23:46.909Z,5.85
2023-05-20T02:26:14.920Z,5.75
2023-05-20T02:28:47.696Z,8.50
2023-05-20T02:31:15.774Z,5.45
2023-05-20T02:33:45.364Z,6.22
2023-05-20T02:36:13.619Z,4.03
2023-05-20T02:38:41.849Z,5.78
2023-05-20T02:41:11.717Z,4.50
2023-05-20T02:43:41.042Z,6.12
2023-05-20T02:46:09.203Z,5.40
2023-05-20T02:48:38.285Z,4.50
2023-05-20T02:51:06.648Z,4.00
2023-05-20T02:53:34.841Z,4.53
2023-05-20T02:56:06.401Z,5.07
2023-05-20T02:58:35.964Z,3.62
2023-05-20T03:01:04.557Z,3.78
2023-05-20T03:03:33.963Z,3.42
2023-05-20T03:06:01.966Z,4.28
2023-05-20T03:08:30.426Z,2.75
2023-05-20T03:10:59.217Z,4.12
2023-05-20T03:13:28.578Z,4.15
2023-05-20T03:16:01.759Z,4.12
2023-05-20T03:18:30.054Z,4.53
2023-05-20T03:20:58.724Z,4.45
2023-05-20T03:23:27.602Z,3.03
2023-05-20T03:25:55.950Z,3.53
2023-05-20T03:28:24.447Z,3.65
2023-05-20T03:30:52.497Z,2.85
2023-05-20T03:33:20.963Z,3.65
2023-05-20T03:35:49.283Z,3.12
2023-05-20T03:38:17.479Z,5.70
2023-05-20T03:40:45.711Z,4.25
2023-05-20T03:43:14.078Z,4.30
2023-05-20T03:45:42.288Z,3.25
2023-05-20T03:48:10.347Z,2.25
2023-05-20T03:50:39.235Z,7.80
2023-05-20T03:53:07.561Z,3.53
2023-05-20T03:55:37.010Z,3.58
2023-05-20T03:58:08.490Z,3.03
2023-05-20T04:00:36.661Z,3.87
2023-05-20T04:03:06.211Z,2.08
2023-05-20T04:05:35.510Z,3.58
2023-05-20T04:08:05.366Z,3.85
2023-05-20T04:10:34.334Z,2.53
2023-05-20T04:13:02.377Z,3.47
2023-05-20T04:15:31.180Z,2.28
2023-05-20T04:18:01.691Z,2.25
2023-05-20T04:20:29.796Z,4.07
2023-05-20T04:22:58.492Z,2.80
2023-05-20T04:25:27.748Z,1.77
2023-05-20T04:27:58.014Z,4.40
2023-05-20T04:30:26.538Z,2.60
2023-05-20T04:32:55.247Z,1.87
2023-05-20T04:35:26.378Z,3.37
2023-05-20T04:37:56.479Z,7.32
2023-05-20T04:40:24.496Z,4.22
2023-05-20T04:42:53.710Z,4.45
2023-05-20T04:45:23.637Z,4.18
2023-05-20T04:47:53.643Z,3.17
2023-05-20T04:50:22.352Z,3.80
2023-05-20T04:52:51.033Z,2.78
2023-05-20T04:55:20.190Z,5.47
2023-05-20T04:57:49.537Z,9.57
2023-05-20T05:00:18.185Z,4.00
2023-05-20T05:02:46.370Z,2.50
2023-05-20T05:05:15.044Z,2.90
2023-05-20T05:07:43.132Z,3.47
2023-05-20T05:10:12.907Z,3.97
2023-05-20T05:12:41.228Z,6.28
2023-05-20T05:15:09.556Z,3.95
2023-05-20T05:17:37.407Z,2.53
2023-05-20T05:20:06.693Z,2.83
2023-05-20T05:22:37.311Z,3.92
2023-05-20T05:25:06.949Z,5.75
2023-05-20T05:27:36.201Z,1.87
2023-05-20T05:30:06.630Z,1.23
2023-05-20T05:32:37.139Z,3.72
2023-05-20T05:35:08.035Z,6.45
2023-05-20T05:37:36.934Z,1.58
2023-05-20T05:40:07.607Z,4.47
2023-05-20T05:42:35.882Z,1.67
2023-05-20T05:45:04.617Z,2.78
2023-05-20T05:47:34.503Z,2.97
2023-05-20T05:50:02.478Z,2.78
2023-05-20T05:52:32.806Z,1.85
2023-05-20T05:55:03.585Z,1.75
2023-05-20T05:57:33.288Z,1.45
2023-05-20T06:00:02.241Z,2.03
2023-05-20T06:02:36.598Z,2.83
2023-05-20T06:05:05.537Z,1.92
2023-05-20T06:07:33.589Z,1.83
2023-05-20T06:10:02.273Z,3.40
2023-05-20T06:12:31.387Z,0.68
2023-05-20T06:15:00.118Z,2.17
2023-05-20T06:17:28.186Z,1.08
2023-05-20T06:19:56.722Z,1.37
2023-05-20T06:22:25.092Z,2.85
2023-05-20T06:24:55.304Z,2.75
2023-05-20T06:27:23.625Z,3.62
2023-05-20T06:29:51.551Z,3.05
2023-05-20T06:32:19.714Z,2.10
2023-05-20T06:34:48.291Z,3.28
2023-05-20T06:37:16.417Z,2.10
2023-05-20T06:39:44.412Z,1.40
2023-05-20T06:42:13.106Z,1.40
2023-05-20T06:44:44.929Z,3.00
2023-05-20T06:47:18.696Z,2.67
2023-05-20T06:49:47.766Z,1.92
2023-05-20T06:52:17.083Z,3.55
2023-05-20T06:54:46.351Z,1.95
2023-05-20T06:57:14.745Z,6.55
2023-05-20T06:59:43.110Z,3.75
2023-05-20T07:02:12.561Z,3.12
2023-05-20T07:04:40.777Z,1.50
2023-05-20T07:07:09.626Z,2.87
2023-05-20T07:09:37.904Z,3.03
2023-05-20T07:12:06.900Z,3.35
2023-05-20T07:14:35.634Z,3.45
2023-05-20T07:17:04.796Z,3.35
2023-05-20T07:19:34.201Z,2.40
2023-05-20T07:22:03.365Z,3.28
2023-05-20T07:24:32.510Z,3.40
2023-05-20T07:27:00.773Z,6.10
2023-05-20T07:29:29.416Z,7.87
2023-05-20T07:31:58.185Z,6.20
2023-05-20T07:34:26.431Z,2.40
2023-05-20T07:36:55.476Z,3.08
2023-05-20T07:39:24.219Z,1.92
2023-05-20T07:41:52.440Z,3.12
2023-05-20T07:44:22.636Z,1.77
2023-05-20T07:46:51.137Z,1.48
2023-05-20T07:49:21.628Z,4.07
2023-05-20T07:51:50.176Z,2.15
2023-05-20T07:54:18.226Z,2.42
2023-05-20T07:56:47.107Z,3.65
2023-05-20T07:59:15.575Z,2.58
2023-05-20T08:01:44.070Z,2.70
2023-05-20T08:04:13.085Z,4.18
2023-05-20T08:06:41.693Z,1.70
2023-05-20T08:09:10.948Z,1.55
2023-05-20T08:11:39.596Z,3.47
2023-05-20T08:14:07.599Z,4.25
2023-05-20T08:16:37.967Z,2.12
2023-05-20T08:19:06.676Z,2.37
2023-05-20T08:21:35.748Z,1.92
2023-05-20T08:24:04.909Z,2.53
2023-05-20T08:26:33.692Z,3.37
2023-05-20T08:29:02.015Z,2.42
2023-05-20T08:31:31.212Z,3.75
2023-05-20T08:34:00.954Z,2.97
2023-05-20T08:36:29.503Z,3.53
2023-05-20T08:38:57.929Z,3.78
2023-05-20T08:41:27.162Z,4.07
2023-05-20T08:43:55.721Z,3.58
2023-05-20T08:46:24.215Z,2.58
2023-05-20T08:48:53.203Z,3.08
2023-05-20T08:51:24.100Z,2.20
2023-05-20T08:53:52.638Z,5.60
2023-05-20T08:56:23.408Z,4.03
2023-05-20T08:58:52.464Z,1.48
2023-05-20T09:01:26.154Z,1.75
2023-05-20T09:03:54.426Z,1.40
2023-05-20T09:06:22.838Z,3.97
2023-05-20T09:08:52.283Z,1.20
2023-05-20T09:11:22.643Z,2.03
2023-05-20T09:13:51.937Z,2.22
2023-05-20T09:16:20.322Z,3.55
2023-05-20T09:18:48.727Z,2.12
2023-05-20T09:21:17.320Z,2.70
2023-05-20T09:23:49.618Z,3.42
2023-05-20T09:26:19.009Z,2.40
2023-05-20T09:28:47.457Z,1.60
2023-05-20T09:31:15.862Z,1.85
2023-05-20T09:33:47.517Z,4.00
2023-05-20T09:36:16.828Z,1.83
2023-05-20T09:38:47.932Z,2.87
2023-05-20T09:41:15.946Z,3.40
2023-05-20T09:43:45.175Z,1.73
2023-05-20T09:46:14.581Z,1.90
2023-05-20T09:48:43.605Z,4.18
2023-05-20T09:51:13.702Z,3.12
2023-05-20T09:53:43.448Z,4.12
2023-05-20T09:56:11.845Z,3.80
2023-05-20T09:58:42.902Z,3.67
2023-05-20T10:01:11.424Z,5.78
2023-05-20T10:03:43.248Z,3.92
2023-05-20T10:06:30.583Z,2.25
2023-05-20T10:09:14.924Z,4.97
2023-05-20T10:11:58.892Z,2.17
2023-05-20T10:14:36.611Z,2.95
2023-05-20T10:17:10.968Z,5.45
2023-05-20T10:19:39.586Z,3.90
2023-05-20T10:22:12.423Z,3.75
2023-05-20T10:24:45.120Z,3.00
2023-05-20T10:27:15.879Z,2.70
2023-05-20T10:29:54.513Z,1.95
2023-05-20T10:32:27.945Z,1.90
2023-05-20T10:35:01.417Z,2.50
2023-05-20T10:37:43.858Z,2.12
2023-05-20T10:40:14.670Z,2.95
2023-05-20T10:42:43.843Z,3.40
2023-05-20T10:45:12.903Z,2.87
2023-05-20T10:47:59.669Z,4.90
2023-05-20T10:50:39.138Z,2.75
2023-05-20T10:53:21.641Z,3.90
2023-05-20T10:55:58.170Z,4.35
2023-05-20T10:58:26.239Z,5.37
2023-05-20T11:00:56.641Z,2.97
2023-05-20T11:03:26.400Z,3.53
2023-05-20T11:05:54.798Z,5.00
2023-05-20T11:08:29.084Z,5.25
2023-05-20T11:10:58.655Z,5.22
2023-05-20T11:13:27.464Z,4.62
2023-05-20T11:15:56.122Z,6.00
2023-05-20T11:18:32.472Z,19.45
2023-05-20T11:21:01.789Z,3.70
2023-05-20T11:23:31.086Z,9.68
2023-05-20T11:25:59.471Z,3.97
2023-05-20T11:28:27.724Z,5.62
2023-05-20T11:30:56.465Z,4.37
2023-05-20T11:33:27.951Z,3.58
2023-05-20T11:35:58.151Z,7.03
2023-05-20T11:38:26.342Z,5.70
2023-05-20T11:40:56.501Z,20.73
2023-05-20T11:43:25.727Z,3.47
2023-05-20T11:46:00.337Z,5.18
2023-05-20T11:48:29.136Z,6.03
2023-05-20T11:50:58.886Z,5.53
2023-05-20T11:53:29.657Z,5.78
2023-05-20T11:56:00.880Z,4.65
2023-05-20T11:58:35.818Z,2.58
2023-05-20T12:01:17.990Z,8.10
2023-05-20T12:03:51.274Z,2.42
2023-05-20T12:06:20.302Z,3.25
2023-05-20T12:08:48.393Z,4.60
2023-05-20T12:11:16.796Z,4.03
2023-05-20T12:13:45.063Z,4.25
2023-05-20T12:16:13.230Z,5.28
2023-05-20T12:18:41.824Z,4.80
2023-05-20T12:21:15.839Z,3.08
2023-05-20T12:26:30.505Z,3.85
2023-05-20T12:28:58.883Z,3.40
2023-05-20T12:31:27.241Z,4.15
2023-05-20T12:33:55.392Z,5.00
2023-05-20T12:36:23.751Z,6.47
2023-05-20T12:38:51.697Z,5.40
2023-05-20T12:41:19.676Z,3.60
2023-05-20T12:43:47.911Z,4.60
2023-05-20T12:46:16.184Z,4.32
2023-05-20T12:48:44.177Z,4.32
2023-05-20T12:51:12.485Z,2.75
2023-05-20T12:53:40.355Z,3.55
2023-05-20T12:56:08.493Z,3.28
2023-05-20T12:58:36.862Z,3.50
2023-05-20T13:01:17.240Z,2.90
2023-05-20T13:03:45.953Z,3.50
2023-05-20T13:06:14.105Z,6.78
2023-05-20T13:08:42.264Z,3.65
2023-05-20T13:11:10.623Z,3.75
2023-05-20T13:13:38.686Z,4.72
2023-05-20T13:16:09.576Z,4.47
2023-05-20T13:18:38.348Z,4.93
2023-05-20T13:21:11.977Z,7.85
2023-05-20T13:26:31.722Z,6.35
2023-05-20T13:29:00.276Z,4.18
2023-05-20T13:31:28.488Z,4.28
2023-05-20T13:33:59.572Z,4.87
2023-05-20T13:36:27.985Z,7.10
2023-05-20T13:38:56.055Z,4.15
2023-05-20T13:41:26.878Z,4.50
2023-05-20T13:43:55.475Z,5.60
2023-05-20T13:46:23.644Z,6.50
2023-05-20T13:48:51.769Z,5.55
2023-05-20T13:51:20.803Z,7.62
2023-05-20T13:53:49.028Z,5.25
2023-05-20T13:56:17.343Z,3.78
2023-05-20T13:58:46.011Z,17.37
2023-05-20T14:01:15.907Z,6.20
2023-05-20T14:03:44.607Z,13.35
2023-05-20T14:06:15.382Z,6.30
2023-05-20T14:08:43.492Z,7.03
2023-05-20T14:11:12.265Z,6.28
2023-05-20T14:13:40.587Z,8.85
2023-05-20T14:16:08.777Z,4.25
2023-05-20T14:18:37.338Z,5.07
2023-05-20T14:21:05.939Z,8.88
2023-05-20T14:23:34.064Z,8.90
2023-05-20T14:26:02.643Z,7.72
2023-05-20T14:28:30.755Z,4.95
2023-05-20T14:30:58.722Z,7.30
2023-05-20T14:33:26.965Z,5.22
2023-05-20T14:35:55.017Z,8.35
2023-05-20T14:38:23.050Z,5.55
2023-05-20T14:40:51.315Z,5.22
2023-05-20T14:43:19.453Z,4.05
2023-05-20T14:45:47.495Z,4.32
2023-05-20T14:48:16.418Z,5.85
2023-05-20T14:50:44.531Z,3.62
2023-05-20T14:53:12.601Z,6.55
2023-05-20T14:55:41.123Z,3.00
2023-05-20T14:58:11.688Z,4.40
2023-05-20T15:00:40.122Z,6.68
2023-05-20T15:03:08.991Z,4.45
2023-05-20T15:05:37.393Z,3.42
2023-05-20T15:08:05.670Z,7.60
2023-05-20T15:10:34.590Z,4.18
2023-05-20T15:13:03.616Z,7.30
2023-05-20T15:15:32.416Z,5.45
2023-05-20T15:18:01.728Z,8.23
2023-05-20T15:20:29.815Z,5.97
2023-05-20T15:23:00.309Z,5.93
2023-05-20T15:25:29.426Z,8.55
2023-05-20T15:27:57.435Z,4.65
2023-05-20T15:30:25.524Z,10.45
2023-05-20T15:32:54.001Z,7.18
2023-05-20T15:35:22.357Z,6.40
2023-05-20T15:37:50.451Z,6.18
2023-05-20T15:40:18.873Z,2.65
2023-05-20T15:42:48.564Z,4.28
2023-05-20T15:45:16.836Z,7.12
2023-05-20T15:47:45.388Z,7.28
2023-05-20T15:50:13.555Z,6.30
2023-05-20T15:52:41.727Z,7.12
2023-05-20T15:55:10.664Z,7.97
2023-05-20T15:57:38.889Z,8.60
2023-05-20T16:00:10.665Z,4.20
2023-05-20T16:02:40.609Z,6.07
2023-05-20T16:05:09.017Z,3.70
2023-05-20T16:07:37.333Z,5.43
2023-05-20T16:10:06.638Z,5.93
2023-05-20T16:12:34.867Z,6.03
2023-05-20T16:15:03.886Z,6.90
2023-05-20T16:17:32.624Z,3.62
2023-05-20T16:20:01.324Z,4.18
2023-05-20T16:22:32.822Z,3.75
2023-05-20T16:25:04.581Z,4.97
2023-05-20T16:27:34.387Z,4.82
2023-05-20T16:30:03.412Z,5.47
2023-05-20T16:32:32.890Z,5.25
2023-05-20T16:35:02.111Z,7.43
2023-05-20T16:37:32.815Z,12.00
2023-05-20T16:40:01.056Z,9.00
2023-05-20T16:42:32.654Z,14.43
2023-05-20T16:45:01.559Z,5.28
2023-05-20T16:47:33.426Z,5.90
2023-05-20T16:50:01.879Z,4.93
2023-05-20T16:52:33.400Z,8.52
2023-05-20T16:55:05.168Z,4.40
2023-05-20T16:57:33.883Z,27.08
2023-05-20T17:00:02.759Z,5.00
2023-05-20T17:02:33.236Z,6.97
2023-05-20T17:05:01.789Z,4.40
2023-05-20T17:07:33.876Z,4.05
2023-05-20T17:10:02.379Z,3.65
2023-05-20T17:12:31.944Z,4.62
2023-05-20T17:14:59.942Z,5.53
2023-05-20T17:17:28.121Z,5.43
2023-05-20T17:19:56.690Z,3.97
2023-05-20T17:22:24.874Z,9.23
2023-05-20T17:24:53.034Z,6.55
2023-05-20T17:27:21.570Z,4.50
2023-05-20T17:29:49.681Z,6.90
2023-05-20T17:32:17.996Z,5.75
2023-05-20T17:34:46.793Z,7.15
2023-05-20T17:40:00.894Z,9.32
2023-05-20T17:42:31.998Z,6.12
2023-05-20T17:45:00.601Z,6.07
2023-05-20T17:47:28.935Z,5.43
2023-05-20T17:49:57.125Z,6.35
2023-05-20T17:52:25.895Z,5.68
2023-05-20T17:54:54.063Z,5.22
2023-05-20T17:57:22.346Z,6.40
2023-05-20T17:59:51.337Z,4.87
2023-05-20T18:02:19.631Z,7.80
2023-05-20T18:04:51.207Z,6.07
2023-05-20T18:07:19.420Z,8.60
2023-05-20T18:09:47.947Z,7.87
2023-05-20T18:12:16.537Z,5.90
2023-05-20T18:14:44.861Z,8.60
2023-05-20T18:17:13.580Z,6.15
2023-05-20T18:19:41.771Z,7.20
2023-05-20T18:22:09.904Z,5.72
2023-05-20T18:24:38.922Z,5.40
2023-05-20T18:27:07.094Z,3.95
2023-05-20T18:29:35.282Z,5.93
2023-05-20T18:32:04.798Z,4.43
2023-05-20T18:34:35.058Z,6.28
2023-05-20T18:37:04.498Z,5.57
2023-05-20T18:39:32.711Z,6.47
2023-05-20T18:42:01.051Z,7.85
2023-05-20T18:44:29.542Z,10.55
2023-05-20T18:46:57.561Z,7.87
2023-05-20T18:49:25.502Z,6.40
2023-05-20T18:51:54.269Z,8.30
2023-05-20T18:54:22.524Z,7.72
2023-05-20T18:56:51.096Z,9.00
2023-05-20T18:59:19.949Z,6.47
2023-05-20T19:01:48.958Z,8.10
2023-05-20T19:04:17.189Z,7.60
2023-05-20T19:06:46.328Z,5.75
2023-05-20T19:09:14.731Z,5.65
2023-05-20T19:11:43.137Z,5.45
2023-05-20T19:14:12.777Z,5.25
2023-05-20T19:16:41.190Z,5.05
2023-05-20T19:19:09.606Z,5.25
2023-05-20T19:21:43.192Z,8.52
2023-05-20T19:24:12.577Z,6.80
2023-05-20T19:26:41.814Z,5.75
2023-05-20T19:29:10.185Z,4.65
2023-05-20T19:31:41.760Z,5.15
2023-05-20T19:34:10.622Z,4.72
2023-05-20T19:36:40.208Z,4.82
2023-05-20T19:39:10.329Z,4.55
2023-05-20T19:41:38.935Z,5.65
2023-05-20T19:44:08.859Z,5.87
2023-05-20T19:46:37.121Z,9.40
2023-05-20T19:49:06.617Z,5.93
2023-05-20T19:51:34.800Z,7.75
2023-05-20T19:54:02.994Z,6.35
2023-05-20T19:56:32.040Z,8.82
2023-05-20T19:59:01.994Z,7.65
2023-05-20T20:01:31.018Z,7.47
2023-05-20T20:03:59.502Z,7.18
2023-05-20T20:06:27.540Z,8.32
2023-05-20T20:08:55.595Z,4.97
2023-05-20T20:11:24.219Z,6.80
2023-05-20T20:13:52.418Z,6.32
2023-05-20T20:16:20.534Z,5.47
2023-05-20T20:18:49.138Z,8.10
2023-05-20T20:21:17.080Z,6.75
2023-05-20T20:23:45.080Z,6.28
2023-05-20T20:26:14.189Z,7.18
2023-05-20T20:28:42.294Z,10.77
2023-05-20T20:33:57.058Z,8.88
2023-05-20T20:36:25.161Z,7.95
2023-05-20T20:38:53.251Z,8.30
2023-05-20T20:41:21.834Z,11.25
2023-05-20T20:46:37.935Z,10.52
2023-05-20T20:49:05.972Z,9.52
2023-05-20T20:51:34.368Z,10.05
2023-05-20T20:54:02.531Z,11.00
2023-05-20T20:56:30.645Z,9.82
2023-05-20T20:58:59.056Z,10.00
2023-05-20T21:01:27.260Z,10.85
2023-05-20T21:03:55.551Z,8.82
2023-05-20T21:06:24.032Z,9.63
2023-05-20T21:08:53.461Z,10.05
2023-05-20T21:11:22.851Z,10.25
2023-05-20T21:13:51.298Z,7.43
2023-05-20T21:16:19.874Z,8.82
2023-05-20T21:18:47.964Z,9.52
2023-05-20T21:21:21.022Z,9.25
2023-05-20T21:23:51.219Z,10.70
2023-05-20T21:26:21.740Z,10.95
2023-05-20T21:28:49.839Z,10.38
2023-05-20T21:31:18.163Z,11.40
2023-05-20T21:33:46.770Z,9.57
2023-05-20T21:36:14.879Z,13.23
2023-05-20T21:38:42.893Z,9.27
2023-05-20T21:41:11.680Z,10.15
2023-05-20T21:43:39.795Z,9.18
2023-05-20T21:46:08.268Z,9.80
2023-05-20T21:48:36.713Z,9.05
2023-05-20T21:51:04.736Z,10.02
2023-05-20T21:53:32.787Z,12.70
2023-05-20T21:56:01.355Z,12.82
2023-05-20T21:58:29.445Z,10.55
2023-05-20T22:00:57.886Z,10.52
2023-05-20T22:03:26.402Z,8.95
2023-05-20T22:05:54.368Z,9.73
2023-05-20T22:08:22.492Z,13.15
2023-05-20T22:10:51.033Z,10.45
2023-05-20T22:13:20.937Z,11.77
2023-05-20T22:15:49.132Z,13.65
2023-05-20T22:18:17.555Z,10.25
2023-05-20T22:20:46.408Z,12.30
2023-05-20T22:23:14.475Z,13.73
2023-05-20T22:25:43.305Z,11.75
2023-05-20T22:28:11.316Z,15.88
2023-05-20T22:30:39.397Z,9.82
2023-05-20T22:33:07.967Z,10.05
2023-05-20T22:35:36.417Z,16.17
2023-05-20T22:38:04.986Z,11.50
2023-05-20T22:40:34.125Z,13.57
2023-05-20T22:43:02.102Z,12.50
2023-05-20T22:45:30.190Z,12.13
2023-05-20T22:47:58.832Z,14.10
2023-05-20T22:50:28.128Z,12.57
2023-05-20T22:52:56.343Z,12.00
2023-05-20T22:55:24.741Z,14.45
2023-05-20T22:57:52.864Z,14.55
2023-05-20T23:00:21.161Z,13.60
2023-05-20T23:02:50.256Z,14.27
2023-05-20T23:05:18.419Z,14.48
2023-05-20T23:07:46.463Z,14.82
2023-05-20T23:10:14.961Z,16.25
2023-05-20T23:12:43.014Z,16.42
2023-05-20T23:15:11.349Z,12.90
2023-05-20T23:17:40.157Z,16.67
2023-05-20T23:20:11.968Z,15.10
2023-05-20T23:22:41.517Z,18.83
2023-05-20T23:25:10.075Z,14.10
2023-05-20T23:27:38.240Z,15.50
2023-05-20T23:30:07.377Z,17.20
2023-05-20T23:32:35.361Z,13.30
2023-05-20T23:35:05.001Z,13.20
2023-05-20T23:37:34.933Z,13.52
2023-05-20T23:40:04.733Z,15.35
2023-05-20T23:42:32.732Z,14.13
2023-05-20T23:45:01.359Z,14.13
2023-05-20T23:47:36.744Z,13.45
2023-05-20T23:50:05.551Z,13.27
2023-05-20T23:52:34.586Z,12.18
2023-05-20T23:55:02.605Z,17.35
2023-05-20T23:57:32.680Z,11.30
